createdAt,value
2019-03-24T00:00:03.321Z,72.06
2019-03-24T00:10:03.214Z,72.58
2019-03-24T00:20:03.108Z,73.07
2019-03-24T00:30:03.819Z,73.89
2019-03-24T00:40:02.815Z,74.38
2019-03-24T00:50:02.865Z,74.58
2019-03-24T01:00:04.433Z,74.41
2019-03-24T01:10:02.926Z,73.94
2019-03-24T01:20:03.525Z,75.39
2019-03-24T01:30:03.991Z,76.24
2019-03-24T01:40:02.767Z,76.22
2019-03-24T01:50:02.486Z,76.65
2019-03-24T02:00:04.037Z,77.04
2019-03-24T02:10:03.373Z,76.83
2019-03-24T02:20:03.281Z,76.10
2019-03-24T02:30:04.186Z,76.13
2019-03-24T02:40:02.885Z,77.17
2019-03-24T02:50:03.467Z,76.91
2019-03-24T03:00:03.985Z,78.85
2019-03-24T03:10:03.177Z,81.72
2019-03-24T03:20:03.230Z,81.90
2019-03-24T03:30:03.690Z,82.49
2019-03-24T03:40:03.821Z,81.56
2019-03-24T03:50:02.587Z,80.77
2019-03-24T04:00:03.796Z,79.69
2019-03-24T04:10:03.221Z,79.57
2019-03-24T04:20:02.917Z,79.43
2019-03-24T04:30:03.247Z,79.99
2019-03-24T04:40:02.844Z,79.93
2019-03-24T04:50:03.327Z,79.62
2019-03-24T05:00:03.574Z,80.29
2019-03-24T05:10:03.420Z,82.03
2019-03-24T05:20:03.329Z,82.66
2019-03-24T05:30:03.004Z,82.94
2019-03-24T05:40:03.097Z,80.77
2019-03-24T05:50:03.105Z,77.71
2019-03-24T06:00:03.450Z,75.55
2019-03-24T06:10:03.407Z,72.59
2019-03-24T06:20:03.251Z,71.29
2019-03-24T06:30:03.747Z,69.24
2019-03-24T06:40:02.573Z,68.19
2019-03-24T06:50:02.566Z,64.59
2019-03-24T07:00:04.096Z,61.94
2019-03-24T07:10:03.633Z,59.45
2019-03-24T07:20:04.853Z,58.47
2019-03-24T07:30:04.046Z,58.30
2019-03-24T07:40:03.157Z,58.29
2019-03-24T07:50:02.857Z,57.74
2019-03-24T08:00:03.919Z,53.38
2019-03-24T08:10:02.724Z,52.52
2019-03-24T08:20:02.761Z,51.02
2019-03-24T08:30:03.142Z,50.25
2019-03-24T08:40:02.960Z,50.72
2019-03-24T08:50:02.621Z,48.94
2019-03-24T09:00:04.691Z,46.90
2019-03-24T09:10:03.572Z,46.25
2019-03-24T09:20:03.711Z,45.75
2019-03-24T09:30:04.043Z,45.37
2019-03-24T09:40:03.076Z,43.03
2019-03-24T09:50:02.890Z,41.82
2019-03-24T10:00:03.586Z,42.28
2019-03-24T10:10:03.279Z,40.75
2019-03-24T10:20:03.051Z,39.86
2019-03-24T10:30:03.907Z,37.80
2019-03-24T10:40:03.425Z,37.62
2019-03-24T10:50:03.140Z,36.01
2019-03-24T11:00:03.749Z,33.76
2019-03-24T11:10:02.567Z,34.46
2019-03-24T11:20:03.496Z,34.46
2019-03-24T11:30:03.827Z,33.06
2019-03-24T11:40:02.883Z,33.62
2019-03-24T11:50:02.532Z,32.55
2019-03-24T12:00:03.828Z,33.36
2019-03-24T12:10:03.337Z,33.82
2019-03-24T12:20:03.340Z,32.95
2019-03-24T12:30:03.591Z,31.90
2019-03-24T12:40:03.000Z,32.68
2019-03-24T12:50:10.059Z,31.56
2019-03-24T13:00:04.188Z,32.80
2019-03-24T13:10:02.771Z,32.82
2019-03-24T13:20:02.757Z,33.81
2019-03-24T13:30:03.430Z,33.60
2019-03-24T13:40:03.444Z,32.03
2019-03-24T13:50:02.859Z,33.87
2019-03-24T14:00:03.843Z,33.11
2019-03-24T14:10:02.751Z,33.06
2019-03-24T14:20:03.614Z,33.58
2019-03-24T14:30:03.158Z,34.00
2019-03-24T14:40:03.044Z,32.38
2019-03-24T14:50:02.569Z,33.53
2019-03-24T15:00:03.627Z,34.25
2019-03-24T15:10:02.571Z,36.05
2019-03-24T15:20:03.500Z,35.02
2019-03-24T15:30:03.978Z,35.52
2019-03-24T15:40:02.774Z,36.00
2019-03-24T15:50:02.543Z,34.96
2019-03-24T16:00:03.424Z,34.82
2019-03-24T16:10:03.297Z,36.50
2019-03-24T16:20:03.158Z,36.67
2019-03-24T16:30:04.221Z,37.85
2019-03-24T16:40:03.314Z,40.68
2019-03-24T16:50:03.016Z,42.30
2019-03-24T17:00:04.024Z,43.65
2019-03-24T17:10:03.501Z,45.07
2019-03-24T17:20:03.246Z,45.76
2019-03-24T17:30:04.209Z,45.68
2019-03-24T17:40:02.818Z,45.62
2019-03-24T17:50:03.322Z,45.14
2019-03-24T18:00:03.361Z,47.11
2019-03-24T18:10:03.398Z,49.44
2019-03-24T18:20:03.365Z,53.72
2019-03-24T18:30:04.351Z,56.13
2019-03-24T18:40:02.556Z,59.33
2019-03-24T18:50:03.652Z,61.11
2019-03-24T19:00:03.908Z,62.32
2019-03-24T19:10:03.904Z,62.89
2019-03-24T19:20:02.776Z,59.73
2019-03-24T19:30:03.193Z,58.53
2019-03-24T19:40:02.921Z,58.56
2019-03-24T19:50:03.397Z,58.78
2019-03-24T20:00:03.192Z,59.42
2019-03-24T20:10:02.829Z,60.33
2019-03-24T20:20:02.963Z,61.15
2019-03-24T20:30:03.323Z,62.91
2019-03-24T20:40:03.290Z,64.65
2019-03-24T20:50:04.274Z,65.96
2019-03-24T21:00:03.854Z,67.22
2019-03-24T21:10:03.162Z,67.63
2019-03-24T21:20:03.233Z,68.35
2019-03-24T21:30:03.764Z,69.31
2019-03-24T21:40:06.587Z,71.02
2019-03-24T21:50:03.128Z,71.74
2019-03-24T22:00:03.887Z,72.36
2019-03-24T22:10:02.571Z,73.40
2019-03-24T22:20:03.456Z,73.81
2019-03-24T22:30:03.747Z,74.36
2019-03-24T22:40:03.005Z,74.98
2019-03-24T22:50:02.656Z,74.87
2019-03-24T23:00:03.382Z,74.89
2019-03-24T23:10:03.153Z,74.11
2019-03-24T23:20:03.268Z,74.06
2019-03-24T23:30:03.934Z,74.10
2019-03-24T23:40:03.707Z,74.68
2019-03-24T23:50:03.402Z,73.91
